Accueil
METAR-TAF:

METAR-TAF

Aéroports :

Berne, Suisse

Aéroport international de Berne

latitude: 46-55N, longitude: 007-30E, altitude: 505 m

Observation

Le bulletin a été fait il y a 35 minutes, à 20:50 UTC
Vent 4 kt de ouest/nord-ouest
Température 4°C
Humidité 93%
Pression 1011 hPa
Visibilité 10 km ou plus
Nuages épars à une hauteur de 3400 ft
Ciel couvert à une hauteur de 4000 ft

METAR: LSZB 262050Z AUTO 30004KT 9999 SCT034 OVC040 04/03 Q1011

Heure: 23:25 (21:25 UTC)

Prévision

Le bulletin a été fait il y a 7 heures et 0 minutes, à 14:25 UTC
Prévision valable du 26 à 15 UTC au 26 à 24 UTC
Vent 4 kt de nord-ouest
Visibilité 10 km ou plus
Nuages épars à une hauteur de 1200 ft
Nuages fragmentés à une hauteur de 2000 ft
Temporairement
du 26 à 18 UTC au 26 à 24 UTC
Nuages fragmentés à une hauteur de 1200 ft
pluie

TAF: LSZB 261425Z 2615/2624 32004KT 9999 SCT012 BKN020 TEMPO 2618/2624 RA BKN012

Observations et prévisions météorologiques de plus de 4000 aéroports (messages METAR et TAF).

Les stations disponibles sont représentées par des disques jaunes et rouges sur la carte.

Passer la souris dessus pour voir le nom de la station.

Cliquer dessus pour voir les observations et prévisions météorologiques.

Pour changer de carte: cliquez sur les boutons verts avec une croix noire pour zoomer, sur le bouton vert avec un tiret pour effectuer un zoom arrière, ou sur les flèches vertes pour les cartes adjacentes.


METAR-TAF: